Time;durP1;ratioP1;P1;durP2;ratioP2;P2;SDS_P1;SDS_P2;PMS_P1;PMS_P2;Temp;Humidity;BMP_temperature;BMP_pressure;BME280_temperature;BME280_humidity;BME280_pressure;Samples;Min_cycle;Max_cycle;Signal;HPM_P1;HPM_P2
2022/07/30 00:00:34;;;;;;;7.18;4.65;;;17.70;90.60;;;;;;5058729;28;20124;-43
2022/07/30 00:03:01;;;;;;;9.48;5.50;;;17.60;90.50;;;;;;5066727;28;20467;-43
2022/07/30 00:05:28;;;;;;;8.50;4.97;;;17.60;90.70;;;;;;5060699;28;20453;-42
2022/07/30 00:07:54;;;;;;;8.05;5.53;;;17.50;90.70;;;;;;5032889;28;20077;-43
2022/07/30 00:10:22;;;;;;;9.45;5.45;;;17.50;90.80;;;;;;5018785;28;20084;-42
2022/07/30 00:12:49;;;;;;;9.23;5.13;;;17.50;90.90;;;;;;5030876;28;20448;-43
2022/07/30 00:15:16;;;;;;;8.90;5.97;;;17.50;91.00;;;;;;5011500;28;20156;-43
2022/07/30 00:17:44;;;;;;;9.07;6.03;;;17.40;91.30;;;;;;5017678;28;20124;-43
2022/07/30 00:20:11;;;;;;;11.13;5.50;;;17.40;91.40;;;;;;5021175;28;20123;-42
2022/07/30 00:22:38;;;;;;;10.27;6.35;;;17.30;91.60;;;;;;5032300;28;20075;-43
2022/07/30 00:25:05;;;;;;;9.07;5.40;;;17.20;91.80;;;;;;5017086;28;20465;-43
2022/07/30 00:27:34;;;;;;;7.95;5.60;;;17.20;91.70;;;;;;5033163;28;20049;-42
2022/07/30 00:30:00;;;;;;;8.27;5.80;;;17.20;91.70;;;;;;5024381;28;20048;-43
2022/07/30 00:32:27;;;;;;;13.23;5.80;;;17.10;91.90;;;;;;5030120;28;20053;-42
2022/07/30 00:34:55;;;;;;;9.18;5.30;;;17.10;91.80;;;;;;5011988;28;20124;-42
2022/07/30 00:37:22;;;;;;;9.10;5.82;;;17.10;91.70;;;;;;5027267;28;20053;-42
2022/07/30 00:39:49;;;;;;;7.60;5.88;;;17.10;91.90;;;;;;5024466;28;20052;-43
2022/07/30 00:42:16;;;;;;;9.60;5.57;;;17.10;91.90;;;;;;5023139;28;20145;-42
2022/07/30 00:44:43;;;;;;;10.35;5.80;;;17.00;91.90;;;;;;5017539;28;20046;-42
2022/07/30 00:47:10;;;;;;;6.78;5.00;;;17.00;92.10;;;;;;5028822;28;20048;-43
2022/07/30 00:49:36;;;;;;;10.90;6.55;;;17.00;92.00;;;;;;5005907;28;20064;-43
2022/07/30 00:52:05;;;;;;;9.95;6.18;;;17.00;92.20;;;;;;5026315;28;20136;-43
2022/07/30 00:54:32;;;;;;;13.45;5.85;;;16.90;92.40;;;;;;5028358;28;20045;-43
2022/07/30 00:56:59;;;;;;;8.50;6.07;;;16.90;92.50;;;;;;5031613;28;20073;-43
2022/07/30 00:59:26;;;;;;;12.00;6.68;;;16.80;92.80;;;;;;5026764;28;20124;-42
2022/07/30 01:01:53;;;;;;;8.73;5.85;;;16.80;93.10;;;;;;5028386;28;20045;-42
2022/07/30 01:04:20;;;;;;;11.13;5.63;;;16.80;93.10;;;;;;5017119;28;20093;-42
2022/07/30 01:06:47;;;;;;;9.57;6.32;;;16.70;93.10;;;;;;5026550;28;20038;-42
2022/07/30 01:09:15;;;;;;;7.15;5.70;;;16.70;93.20;;;;;;5030530;28;20061;-42
2022/07/30 01:11:41;;;;;;;10.55;6.32;;;16.70;93.10;;;;;;5068692;28;20488;-43
2022/07/30 01:14:09;;;;;;;12.77;6.93;;;16.60;93.20;;;;;;5071766;28;20037;-43
2022/07/30 01:16:36;;;;;;;11.00;6.93;;;16.60;93.50;;;;;;5057444;28;20128;-42
2022/07/30 01:21:54;;;;;;;12.50;7.10;;;16.50;93.80;;;;;;5053686;28;20049;-43
2022/07/30 01:24:27;;;;;;;10.60;6.10;;;16.50;93.70;;;;;;5063944;28;20052;-42
2022/07/30 01:26:55;;;;;;;10.75;5.68;;;16.40;93.80;;;;;;5059464;28;20045;-42
2022/07/30 01:29:22;;;;;;;10.50;6.07;;;16.50;93.70;;;;;;5053600;28;20329;-42
2022/07/30 01:31:49;;;;;;;8.45;6.40;;;16.40;93.70;;;;;;5065177;28;20041;-42
2022/07/30 01:34:16;;;;;;;11.52;5.88;;;16.40;93.80;;;;;;5062469;28;20477;-42
2022/07/30 01:36:43;;;;;;;12.02;6.85;;;16.40;93.90;;;;;;5062470;28;20045;-41
2022/07/30 01:39:09;;;;;;;10.75;6.68;;;16.40;94.10;;;;;;5068129;28;20095;-42
2022/07/30 01:41:36;;;;;;;8.23;5.75;;;16.40;94.10;;;;;;5072546;28;20083;-41
2022/07/30 01:44:04;;;;;;;10.10;5.45;;;16.30;94.00;;;;;;5066203;28;20120;-42
2022/07/30 01:46:31;;;;;;;13.02;6.15;;;16.30;93.90;;;;;;5069292;28;20075;-42
2022/07/30 01:48:58;;;;;;;10.10;6.18;;;16.30;93.90;;;;;;5066424;28;20120;-42
2022/07/30 01:51:24;;;;;;;12.65;6.72;;;16.30;94.10;;;;;;5055479;28;20044;-42
2022/07/30 01:53:51;;;;;;;9.20;6.57;;;16.30;94.40;;;;;;5049919;28;20044;-42
2022/07/30 01:56:18;;;;;;;8.60;7.35;;;16.20;94.40;;;;;;5049117;28;20120;-42
2022/07/30 01:58:45;;;;;;;7.47;5.82;;;16.20;94.40;;;;;;5065745;28;20115;-42
2022/07/30 02:01:13;;;;;;;8.15;5.90;;;16.20;94.40;;;;;;5053603;28;20068;-42
2022/07/30 02:03:40;;;;;;;9.57;6.93;;;16.10;94.50;;;;;;5042352;28;20121;-42
2022/07/30 02:06:09;;;;;;;8.05;6.22;;;16.10;94.70;;;;;;5054533;28;20072;-42
2022/07/30 02:08:38;;;;;;;8.65;6.35;;;16.10;95.00;;;;;;5056789;28;20048;-42
2022/07/30 02:11:07;;;;;;;9.75;6.80;;;16.10;95.10;;;;;;5063320;28;20045;-42
2022/07/30 02:13:33;;;;;;;12.40;7.70;;;16.00;95.20;;;;;;5046054;28;20076;-42
2022/07/30 02:16:03;;;;;;;8.73;6.85;;;15.90;95.30;;;;;;5073534;28;20399;-42
2022/07/30 02:18:36;;;;;;;7.53;6.60;;;15.90;95.30;;;;;;5062789;28;20088;-42
2022/07/30 02:21:04;;;;;;;9.57;6.25;;;15.90;95.40;;;;;;5034990;28;20140;-42
2022/07/30 02:23:31;;;;;;;10.63;6.60;;;15.90;95.30;;;;;;5051253;28;20123;-42
2022/07/30 02:25:59;;;;;;;8.98;6.60;;;15.90;95.00;;;;;;5039046;28;20080;-42
2022/07/30 02:28:26;;;;;;;9.23;6.30;;;15.90;95.10;;;;;;5061778;28;20045;-42
2022/07/30 02:30:54;;;;;;;10.65;7.07;;;15.70;94.90;;;;;;5052694;28;20730;-42
2022/07/30 02:33:22;;;;;;;9.88;7.07;;;15.80;95.10;;;;;;5060933;28;20123;-42
2022/07/30 02:35:51;;;;;;;10.43;6.13;;;15.70;95.20;;;;;;5063525;28;20450;-42
2022/07/30 02:38:19;;;;;;;6.93;6.20;;;15.70;95.30;;;;;;5065711;28;20048;-42
2022/07/30 02:40:46;;;;;;;9.45;7.07;;;15.70;95.50;;;;;;5067865;28;20098;-42
2022/07/30 02:43:14;;;;;;;8.20;6.55;;;15.60;95.80;;;;;;5057820;28;20048;-42
2022/07/30 02:45:41;;;;;;;12.52;7.15;;;15.60;96.10;;;;;;5064530;28;20132;-42
2022/07/30 02:48:08;;;;;;;11.40;5.97;;;15.50;96.40;;;;;;5054449;28;20532;-42
2022/07/30 02:50:35;;;;;;;11.70;6.05;;;15.60;96.50;;;;;;5062041;28;20044;-42
2022/07/30 02:53:03;;;;;;;7.95;5.93;;;15.60;96.30;;;;;;5072153;28;20052;-42
2022/07/30 02:55:31;;;;;;;7.55;6.15;;;15.50;96.30;;;;;;5071127;28;20044;-42
2022/07/30 02:57:57;;;;;;;7.85;5.50;;;15.50;96.00;;;;;;5063167;28;20040;-42
2022/07/30 03:00:25;;;;;;;7.30;6.32;;;15.50;96.20;;;;;;5060232;28;20420;-42
2022/07/30 03:02:52;;;;;;;10.15;6.03;;;15.50;95.90;;;;;;5053770;28;20128;-42
2022/07/30 03:05:19;;;;;;;7.65;5.57;;;15.50;96.00;;;;;;5070039;28;20056;-42
2022/07/30 03:07:46;;;;;;;9.18;5.28;;;15.50;95.90;;;;;;5070943;28;20059;-42
2022/07/30 03:10:14;;;;;;;11.10;7.25;;;15.50;95.80;;;;;;5069371;28;20432;-42
2022/07/30 03:12:42;;;;;;;9.90;6.70;;;15.40;96.30;;;;;;5070274;28;20051;-42
2022/07/30 03:15:09;;;;;;;11.73;8.35;;;15.40;96.50;;;;;;5071405;28;20507;-42
2022/07/30 03:17:38;;;;;;;10.48;6.60;;;15.40;97.00;;;;;;5070187;28;20047;-41
2022/07/30 03:20:06;;;;;;;9.68;7.45;;;15.30;97.00;;;;;;5069056;28;20123;-42
2022/07/30 03:22:33;;;;;;;9.57;6.75;;;15.30;97.30;;;;;;5067371;28;20045;-42
2022/07/30 03:25:01;;;;;;;10.95;7.93;;;15.30;97.20;;;;;;5066742;28;20509;-42
2022/07/30 03:27:29;;;;;;;10.55;6.97;;;15.20;97.60;;;;;;5069949;28;20493;-42
2022/07/30 03:29:56;;;;;;;8.65;7.13;;;15.20;97.80;;;;;;5071526;28;20044;-41
2022/07/30 03:32:23;;;;;;;11.05;6.47;;;15.20;97.90;;;;;;5070932;28;20075;-41
2022/07/30 03:34:49;;;;;;;9.65;6.95;;;15.20;97.70;;;;;;5055971;28;20504;-42
2022/07/30 03:37:16;;;;;;;9.55;7.22;;;15.20;97.70;;;;;;5063725;28;20076;-42
2022/07/30 03:39:43;;;;;;;10.32;7.28;;;15.20;97.60;;;;;;5053868;28;20128;-42
2022/07/30 03:42:10;;;;;;;11.32;7.55;;;15.30;97.60;;;;;;5053076;28;20045;-42
2022/07/30 03:44:38;;;;;;;21.10;8.23;;;15.20;97.40;;;;;;5061867;28;20131;-42
2022/07/30 03:47:05;;;;;;;14.85;9.20;;;15.20;97.50;;;;;;5033025;28;20045;-42
2022/07/30 03:49:32;;;;;;;13.95;8.27;;;15.20;97.60;;;;;;5050036;28;20381;-42
2022/07/30 03:51:59;;;;;;;24.55;9.73;;;15.20;97.60;;;;;;5054880;28;20485;-42
2022/07/30 03:54:25;;;;;;;13.27;8.98;;;15.20;97.80;;;;;;5065543;28;20048;-42
2022/07/30 03:56:52;;;;;;;11.75;8.35;;;15.20;97.80;;;;;;5067684;28;20041;-42
2022/07/30 03:59:19;;;;;;;12.23;7.72;;;15.20;97.80;;;;;;5056997;28;20048;-41
2022/07/30 04:01:47;;;;;;;10.38;7.38;;;15.20;97.60;;;;;;5065102;28;20044;-41
2022/07/30 04:04:14;;;;;;;12.50;8.18;;;15.20;97.70;;;;;;5071119;28;20144;-43
2022/07/30 04:06:41;;;;;;;9.68;7.30;;;15.20;97.70;;;;;;5070843;28;20080;-43
2022/07/30 04:09:08;;;;;;;13.77;8.95;;;15.20;97.80;;;;;;5048756;28;20044;-42
2022/07/30 04:11:35;;;;;;;15.98;9.65;;;15.20;98.00;;;;;;5044181;28;20086;-43
2022/07/30 04:14:02;;;;;;;25.23;11.18;;;15.30;98.30;;;;;;5063095;28;20127;-43
2022/07/30 04:16:33;;;;;;;41.63;10.43;;;15.30;98.60;;;;;;5049547;28;20468;-43
2022/07/30 04:19:01;;;;;;;25.08;10.38;;;15.30;98.90;;;;;;5059815;28;20091;-43
2022/07/30 04:21:28;;;;;;;22.95;9.02;;;15.30;99.20;;;;;;5067802;28;20404;-43
2022/07/30 04:23:55;;;;;;;15.68;8.90;;;15.30;99.30;;;;;;5071956;28;20476;-43
2022/07/30 04:26:22;;;;;;;10.57;9.00;;;15.20;99.40;;;;;;5052895;28;20084;-42
2022/07/30 04:28:49;;;;;;;10.45;7.75;;;15.30;99.50;;;;;;5055111;28;20128;-43
2022/07/30 04:31:15;;;;;;;15.50;7.97;;;15.30;99.60;;;;;;5057560;28;20045;-43
2022/07/30 04:33:45;;;;;;;10.80;7.22;;;15.30;99.60;;;;;;5053036;28;20041;-43
2022/07/30 04:36:13;;;;;;;10.38;7.35;;;15.30;99.60;;;;;;5055486;28;20076;-43
2022/07/30 04:38:40;;;;;;;7.40;6.50;;;15.30;99.50;;;;;;5065921;28;20041;-42
2022/07/30 04:41:07;;;;;;;18.52;6.75;;;15.40;99.30;;;;;;5054420;28;20044;-42
2022/07/30 04:43:34;;;;;;;18.23;7.65;;;15.40;99.40;;;;;;5047825;28;20049;-42
2022/07/30 04:46:00;;;;;;;17.17;7.80;;;15.40;99.50;;;;;;5058711;28;20041;-41
2022/07/30 04:48:27;;;;;;;20.60;8.93;;;15.50;99.70;;;;;;5069481;28;20083;-42
2022/07/30 04:50:55;;;;;;;10.95;8.40;;;15.50;99.90;;;;;;5066207;28;20488;-42
2022/07/30 04:53:23;;;;;;;14.15;8.43;;;15.50;99.90;;;;;;5054484;28;20075;-42
2022/07/30 04:55:50;;;;;;;11.13;7.32;;;15.50;99.90;;;;;;5053211;28;20072;-42
2022/07/30 04:58:18;;;;;;;9.02;7.25;;;15.50;99.90;;;;;;5056157;28;20128;-42
2022/07/30 05:00:44;;;;;;;20.55;8.60;;;15.50;99.90;;;;;;5055102;28;20055;-42
2022/07/30 05:03:12;;;;;;;30.13;9.13;;;15.50;99.90;;;;;;5045883;28;20053;-42
2022/07/30 05:05:39;;;;;;;15.18;7.90;;;15.60;99.90;;;;;;5065967;28;20072;-43
2022/07/30 05:08:06;;;;;;;8.30;6.40;;;15.60;99.90;;;;;;5058206;28;20511;-42
2022/07/30 05:10:34;;;;;;;43.90;10.27;;;15.60;99.90;;;;;;5056967;28;20045;-42
2022/07/30 05:13:01;;;;;;;19.20;7.47;;;15.70;99.90;;;;;;5058911;28;20131;-43
2022/07/30 05:15:28;;;;;;;9.88;7.60;;;15.70;99.90;;;;;;5058031;28;20041;-42
2022/07/30 05:17:55;;;;;;;15.07;7.88;;;15.70;99.90;;;;;;5051227;28;20041;-43
2022/07/30 05:20:22;;;;;;;9.77;7.97;;;15.80;99.90;;;;;;5053687;28;20053;-43
2022/07/30 05:22:48;;;;;;;5.63;5.10;;;15.80;99.90;;;;;;5056668;28;20464;-42
2022/07/30 05:25:16;;;;;;;13.18;7.60;;;15.90;99.90;;;;;;5073589;28;20135;-43
2022/07/30 05:27:47;;;;;;;24.58;8.23;;;16.00;99.90;;;;;;5054795;28;20040;-42
2022/07/30 05:30:14;;;;;;;10.77;6.63;;;16.10;99.90;;;;;;5068238;28;20190;-42
2022/07/30 05:32:40;;;;;;;29.23;9.10;;;16.10;99.90;;;;;;5054827;28;20091;-42
2022/07/30 05:35:08;;;;;;;79.97;9.88;;;16.20;99.90;;;;;;5053728;28;20080;-42
2022/07/30 05:37:35;;;;;;;48.45;10.00;;;16.30;99.90;;;;;;5042526;28;20077;-42
2022/07/30 05:40:01;;;;;;;40.45;9.75;;;16.30;99.90;;;;;;5055980;28;20168;-42
2022/07/30 05:42:28;;;;;;;29.35;9.45;;;16.30;99.90;;;;;;5057692;28;20110;-43
2022/07/30 05:44:56;;;;;;;29.50;9.05;;;16.40;99.90;;;;;;5057343;28;20437;-42
2022/07/30 05:47:23;;;;;;;61.88;10.25;;;16.50;99.90;;;;;;5050890;28;20535;-42
2022/07/30 05:49:50;;;;;;;17.17;9.15;;;16.50;99.90;;;;;;5052032;28;20138;-42
2022/07/30 05:52:16;;;;;;;14.85;9.48;;;16.60;99.90;;;;;;5053079;28;20081;-42
2022/07/30 05:54:43;;;;;;;15.80;9.20;;;16.60;99.90;;;;;;5068180;28;20135;-42
2022/07/30 05:57:10;;;;;;;11.80;8.23;;;16.70;99.90;;;;;;5060629;28;20045;-43
2022/07/30 05:59:37;;;;;;;37.67;10.10;;;16.80;99.90;;;;;;5050867;28;20137;-43
2022/07/30 06:02:05;;;;;;;8.23;6.78;;;16.80;99.90;;;;;;5049794;28;20136;-42
2022/07/30 06:04:34;;;;;;;14.70;8.93;;;16.90;99.90;;;;;;5046547;28;20041;-42
2022/07/30 06:07:00;;;;;;;17.13;10.23;;;17.00;99.90;;;;;;5053490;28;20071;-43
2022/07/30 06:09:29;;;;;;;22.95;9.60;;;17.10;99.90;;;;;;5053137;28;20092;-43
2022/07/30 06:11:56;;;;;;;24.85;10.60;;;17.10;99.90;;;;;;5049333;28;20059;-43
2022/07/30 06:14:23;;;;;;;13.95;9.18;;;17.20;99.90;;;;;;5069609;28;20124;-42
2022/07/30 06:16:50;;;;;;;25.20;9.20;;;17.10;99.90;;;;;;5059625;28;20544;-43
2022/07/30 06:19:18;;;;;;;25.00;10.25;;;17.20;99.90;;;;;;5054634;28;20076;-43
2022/07/30 06:21:44;;;;;;;11.38;8.77;;;17.30;99.90;;;;;;5036212;28;20057;-43
2022/07/30 06:24:11;;;;;;;12.95;8.55;;;17.40;99.90;;;;;;5056000;28;20348;-43
2022/07/30 06:26:38;;;;;;;18.48;11.27;;;17.50;99.90;;;;;;5052838;28;20049;-43
2022/07/30 06:29:05;;;;;;;14.32;11.00;;;17.50;99.90;;;;;;5053099;28;20051;-43
2022/07/30 06:31:31;;;;;;;15.35;9.75;;;17.60;99.90;;;;;;5035583;28;20480;-43
2022/07/30 06:33:58;;;;;;;16.40;11.48;;;17.70;99.90;;;;;;5052604;28;20049;-43
2022/07/30 06:36:26;;;;;;;18.55;11.23;;;17.70;99.90;;;;;;5064745;28;20051;-43
2022/07/30 06:38:53;;;;;;;18.67;13.70;;;17.80;99.90;;;;;;5048753;28;20041;-43
2022/07/30 06:41:20;;;;;;;15.63;12.27;;;17.80;99.90;;;;;;5051772;28;20048;-43
2022/07/30 06:43:47;;;;;;;20.25;13.23;;;17.90;99.90;;;;;;5054680;28;20476;-42
2022/07/30 06:46:17;;;;;;;15.63;11.98;;;18.00;99.90;;;;;;5047676;28;20049;-42
2022/07/30 06:48:43;;;;;;;19.05;12.10;;;18.10;99.90;;;;;;5045172;28;20379;-42
2022/07/30 06:51:10;;;;;;;19.50;13.32;;;18.10;99.90;;;;;;5050816;28;20123;-42
2022/07/30 06:53:38;;;;;;;17.90;14.05;;;18.20;99.90;;;;;;5049715;28;20076;-42
2022/07/30 06:56:05;;;;;;;17.48;11.77;;;18.20;99.90;;;;;;5051204;28;20131;-42
2022/07/30 06:58:32;;;;;;;15.10;12.57;;;18.40;99.90;;;;;;5050251;28;20080;-43
2022/07/30 07:00:58;;;;;;;19.50;12.95;;;18.40;99.90;;;;;;5048390;28;20358;-43
2022/07/30 07:03:26;;;;;;;18.52;12.88;;;18.60;99.90;;;;;;5045507;28;20073;-43
2022/07/30 07:05:53;;;;;;;19.40;12.48;;;18.70;99.90;;;;;;5046803;28;20045;-42
2022/07/30 07:08:19;;;;;;;19.05;12.50;;;18.70;99.90;;;;;;5047067;28;20076;-42
2022/07/30 07:10:48;;;;;;;15.40;11.60;;;18.80;99.90;;;;;;5049558;28;20068;-42
2022/07/30 07:13:14;;;;;;;18.45;10.80;;;18.80;99.90;;;;;;5053319;28;20045;-43
2022/07/30 07:15:41;;;;;;;15.20;10.70;;;18.90;99.90;;;;;;5053649;28;20445;-42
2022/07/30 07:18:08;;;;;;;15.95;10.57;;;19.00;99.90;;;;;;5047558;28;20045;-42
2022/07/30 07:20:35;;;;;;;14.45;11.27;;;19.10;99.90;;;;;;5042236;28;20044;-42
2022/07/30 07:23:02;;;;;;;16.00;12.18;;;19.20;99.90;;;;;;5050255;28;20092;-43
2022/07/30 07:25:28;;;;;;;19.35;11.57;;;19.30;99.90;;;;;;5051121;28;20419;-42
2022/07/30 07:27:56;;;;;;;18.05;11.13;;;19.30;99.90;;;;;;5046788;28;20041;-41
2022/07/30 07:30:23;;;;;;;18.45;10.77;;;19.30;99.90;;;;;;5051249;28;20045;-42
2022/07/30 07:32:50;;;;;;;15.88;10.65;;;19.50;99.90;;;;;;5048493;28;20076;-41
2022/07/30 07:35:17;;;;;;;14.80;9.68;;;19.60;99.90;;;;;;5049587;28;20440;-42
2022/07/30 07:37:43;;;;;;;14.40;10.93;;;19.60;99.90;;;;;;5049250;28;20544;-43
2022/07/30 07:40:11;;;;;;;19.65;11.15;;;19.70;99.90;;;;;;5041491;28;20081;-42
2022/07/30 07:42:38;;;;;;;14.57;10.27;;;19.70;99.90;;;;;;5050259;28;20078;-42
2022/07/30 07:45:07;;;;;;;21.45;9.65;;;19.70;99.90;;;;;;5042637;28;20140;-43
2022/07/30 07:47:43;;;;;;;15.75;9.27;;;19.80;99.90;;;;;;5044471;28;20124;-43
2022/07/30 07:50:10;;;;;;;22.05;10.50;;;19.80;99.90;;;;;;5052498;28;20049;-43
2022/07/30 07:52:36;;;;;;;21.33;10.60;;;19.90;99.90;;;;;;5052734;28;20484;-43
2022/07/30 07:55:03;;;;;;;16.58;9.40;;;19.90;99.90;;;;;;5058222;28;20443;-43
2022/07/30 07:57:30;;;;;;;20.73;9.20;;;20.00;99.90;;;;;;5052698;28;20076;-43
2022/07/30 07:59:57;;;;;;;16.75;8.10;;;20.20;99.90;;;;;;5049564;28;20057;-43
2022/07/30 08:02:25;;;;;;;15.38;7.55;;;20.30;99.90;;;;;;5044253;28;20055;-43
2022/07/30 08:04:52;;;;;;;11.95;7.00;;;20.30;99.90;;;;;;5070607;28;20048;-43
2022/07/30 08:07:19;;;;;;;15.93;7.45;;;20.60;99.90;;;;;;5061004;28;20120;-43
2022/07/30 08:09:46;;;;;;;10.75;6.47;;;20.80;99.90;;;;;;5052574;28;20095;-43
2022/07/30 08:12:12;;;;;;;13.00;6.25;;;20.90;99.90;;;;;;5052980;28;20048;-43
2022/07/30 08:14:39;;;;;;;13.73;6.00;;;20.90;99.90;;;;;;5066692;28;20129;-43
2022/07/30 08:17:06;;;;;;;15.57;6.50;;;21.00;99.90;;;;;;5071273;28;20071;-43
2022/07/30 08:19:34;;;;;;;14.32;5.45;;;21.20;99.90;;;;;;5050741;28;20073;-43
2022/07/30 08:22:01;;;;;;;14.05;5.28;;;21.30;99.50;;;;;;5051273;28;20123;-43
2022/07/30 08:24:28;;;;;;;11.68;5.03;;;21.40;98.90;;;;;;5052347;28;20071;-43
2022/07/30 08:26:54;;;;;;;9.32;4.68;;;21.50;98.60;;;;;;5051051;28;20706;-43
2022/07/30 08:29:21;;;;;;;16.10;5.40;;;21.60;98.20;;;;;;5051431;28;20083;-43
2022/07/30 08:31:48;;;;;;;15.25;5.05;;;21.80;98.00;;;;;;5053317;28;20126;-43
2022/07/30 08:34:14;;;;;;;14.70;4.95;;;22.00;97.40;;;;;;5048201;28;20166;-43
2022/07/30 08:36:43;;;;;;;10.55;4.45;;;22.10;96.80;;;;;;5043987;28;20046;-43
2022/07/30 08:39:09;;;;;;;10.02;3.80;;;22.30;96.60;;;;;;5035445;28;20127;-43
2022/07/30 08:41:36;;;;;;;10.05;3.67;;;22.40;96.00;;;;;;5053377;28;20131;-43
2022/07/30 08:44:03;;;;;;;12.55;3.63;;;22.50;95.50;;;;;;5047519;28;20069;-43
2022/07/30 08:46:31;;;;;;;11.38;4.00;;;22.60;95.00;;;;;;5042789;28;20120;-43
2022/07/30 08:48:58;;;;;;;9.15;3.30;;;22.70;94.70;;;;;;5051570;28;20477;-42
2022/07/30 08:51:25;;;;;;;10.73;4.13;;;22.90;94.70;;;;;;5069961;28;20079;-43
2022/07/30 08:53:53;;;;;;;12.00;4.47;;;23.00;94.00;;;;;;5071335;28;20123;-43
2022/07/30 08:56:20;;;;;;;12.50;4.28;;;23.20;93.70;;;;;;5071348;28;20056;-43
2022/07/30 08:58:46;;;;;;;12.95;3.30;;;23.30;93.90;;;;;;5071033;28;20495;-43
2022/07/30 09:01:13;;;;;;;9.77;3.65;;;23.30;93.40;;;;;;5069216;28;20131;-43
2022/07/30 09:03:40;;;;;;;9.43;3.85;;;23.40;93.60;;;;;;5072105;28;20049;-43
2022/07/30 09:06:07;;;;;;;11.95;3.33;;;23.50;93.30;;;;;;5072446;28;20123;-43
2022/07/30 09:08:34;;;;;;;10.63;4.00;;;23.70;93.10;;;;;;5048469;28;20142;-43
2022/07/30 09:11:02;;;;;;;8.45;3.67;;;23.90;92.90;;;;;;5057948;28;20071;-43
2022/07/30 09:13:29;;;;;;;11.35;3.63;;;24.10;92.10;;;;;;5045180;28;20483;-43
2022/07/30 09:15:56;;;;;;;9.70;2.90;;;24.20;91.80;;;;;;5048845;28;20527;-43
2022/07/30 09:18:27;;;;;;;12.00;3.00;;;24.40;91.40;;;;;;5051981;28;20032;-44
2022/07/30 09:20:53;;;;;;;8.50;3.42;;;24.60;91.10;;;;;;5063434;28;20078;-44
2022/07/30 09:23:20;;;;;;;8.15;3.40;;;24.60;90.70;;;;;;5073343;28;20043;-43
2022/07/30 09:25:48;;;;;;;10.80;3.38;;;24.60;90.40;;;;;;5059545;28;20506;-43
2022/07/30 09:28:16;;;;;;;8.25;3.20;;;24.70;90.50;;;;;;5054432;28;20077;-44
2022/07/30 09:30:47;;;;;;;7.13;2.47;;;24.90;90.00;;;;;;5064617;28;20080;-43
2022/07/30 09:33:14;;;;;;;11.55;2.63;;;25.00;89.90;;;;;;5046034;28;20044;-44
2022/07/30 09:35:41;;;;;;;14.00;2.83;;;25.20;88.90;;;;;;5062607;28;20124;-44
2022/07/30 09:38:08;;;;;;;10.13;2.85;;;25.30;88.00;;;;;;5054749;28;20055;-44
2022/07/30 09:40:35;;;;;;;7.43;3.53;;;25.40;87.60;;;;;;5053997;28;20132;-43
2022/07/30 09:43:04;;;;;;;12.10;3.15;;;25.30;87.70;;;;;;5052505;28;20485;-44
2022/07/30 09:45:32;;;;;;;9.43;2.55;;;25.30;87.40;;;;;;5055071;28;20079;-43
2022/07/30 09:47:59;;;;;;;8.18;2.63;;;25.40;87.50;;;;;;5055628;28;20136;-44
2022/07/30 09:50:26;;;;;;;6.95;2.55;;;25.50;86.30;;;;;;5075306;28;20086;-43
2022/07/30 09:52:53;;;;;;;10.57;3.00;;;25.60;85.80;;;;;;5057085;28;20037;-43
2022/07/30 09:55:30;;;;;;;9.32;2.78;;;25.80;84.80;;;;;;5042554;28;20092;-44
2022/07/30 09:57:57;;;;;;;7.32;2.42;;;25.90;84.50;;;;;;5037311;28;20547;-43
2022/07/30 10:00:26;;;;;;;7.88;2.58;;;26.00;83.30;;;;;;5064001;28;20056;-44
2022/07/30 10:02:54;;;;;;;5.65;2.17;;;26.20;82.90;;;;;;5053641;28;20080;-44
2022/07/30 10:05:21;;;;;;;7.68;2.35;;;26.40;82.50;;;;;;5055213;28;20102;-44
2022/07/30 10:07:49;;;;;;;7.25;2.47;;;26.50;81.90;;;;;;5052332;28;20084;-44
2022/07/30 10:10:16;;;;;;;16.50;2.45;;;26.70;81.50;;;;;;5041912;28;20123;-43
2022/07/30 10:12:43;;;;;;;7.32;2.30;;;26.90;80.60;;;;;;5062685;28;20432;-44
2022/07/30 10:15:10;;;;;;;5.53;2.15;;;27.00;78.60;;;;;;5034633;28;20053;-44
2022/07/30 10:17:37;;;;;;;8.23;2.30;;;27.10;78.70;;;;;;5054896;28;20056;-43
2022/07/30 10:20:07;;;;;;;6.20;2.72;;;27.20;78.10;;;;;;5062230;28;20048;-43
2022/07/30 10:22:34;;;;;;;7.43;2.73;;;27.30;78.30;;;;;;5052893;28;20045;-43
2022/07/30 10:25:01;;;;;;;8.35;2.30;;;27.40;78.20;;;;;;5041090;28;20124;-44
2022/07/30 10:27:28;;;;;;;7.85;2.50;;;27.50;76.70;;;;;;5049244;28;20131;-44
2022/07/30 10:29:55;;;;;;;6.95;2.20;;;27.70;75.00;;;;;;5049813;28;20090;-44
2022/07/30 10:32:21;;;;;;;7.25;2.70;;;27.70;73.30;;;;;;5051978;28;20136;-43
2022/07/30 10:34:48;;;;;;;6.75;2.50;;;27.80;72.70;;;;;;5047602;28;20116;-43
2022/07/30 10:37:17;;;;;;;6.95;2.17;;;27.90;73.50;;;;;;5047071;28;20073;-43
2022/07/30 10:39:47;;;;;;;5.43;2.20;;;28.00;73.90;;;;;;5069986;28;20495;-43
2022/07/30 10:42:20;;;;;;;6.27;2.10;;;28.10;72.00;;;;;;5056589;28;20040;-43
2022/07/30 10:45:12;;;;;;;11.80;2.83;;;28.30;71.90;;;;;;5060072;28;20128;-43
2022/07/30 10:47:38;;;;;;;8.20;2.70;;;28.50;71.40;;;;;;5058150;28;20428;-44
2022/07/30 10:50:10;;;;;;;7.22;2.60;;;28.40;70.80;;;;;;5052219;28;20037;-44
2022/07/30 10:52:49;;;;;;;7.95;2.70;;;28.40;71.20;;;;;;5049625;28;20099;-43
2022/07/30 10:55:16;;;;;;;12.68;2.78;;;28.40;70.30;;;;;;5063777;28;20047;-44
2022/07/30 10:57:57;;;;;;;6.00;2.20;;;28.40;70.20;;;;;;5074075;28;20128;-43
2022/07/30 11:00:24;;;;;;;8.73;2.45;;;28.20;68.90;;;;;;5053206;28;20131;-43
2022/07/30 11:03:13;;;;;;;12.32;2.38;;;27.90;69.50;;;;;;5052753;28;20069;-43
2022/07/30 11:05:40;;;;;;;7.57;1.95;;;28.00;69.90;;;;;;5070356;28;20075;-44
2022/07/30 11:08:44;;;;;;;5.82;2.10;;;28.10;69.10;;;;;;5073418;28;20139;-43
2022/07/30 11:11:46;;;;;;;6.15;2.00;;;28.20;69.20;;;;;;5073350;28;20080;-43
2022/07/30 11:14:13;;;;;;;8.02;2.45;;;28.40;68.90;;;;;;5072164;28;20045;-44
2022/07/30 11:16:58;;;;;;;5.13;2.10;;;28.40;67.10;;;;;;5070830;28;20123;-43
2022/07/30 11:19:26;;;;;;;6.70;1.90;;;28.40;67.60;;;;;;5072209;28;20048;-44
2022/07/30 11:22:26;;;;;;;4.78;1.92;;;28.50;67.80;;;;;;5073469;28;20045;-44
2022/07/30 11:24:53;;;;;;;6.80;2.10;;;28.70;67.80;;;;;;5070095;28;20048;-43
2022/07/30 11:27:45;;;;;;;5.65;1.67;;;28.90;66.70;;;;;;5053409;28;20044;-44
2022/07/30 11:30:32;;;;;;;6.68;1.73;;;29.10;66.50;;;;;;5053279;28;20041;-43
2022/07/30 11:33:24;;;;;;;7.50;1.73;;;29.30;67.30;;;;;;5052501;28;20051;-43
2022/07/30 11:36:08;;;;;;;5.85;1.95;;;29.50;66.60;;;;;;5051922;28;20059;-44
2022/07/30 11:38:58;;;;;;;4.75;2.25;;;29.70;65.10;;;;;;5053139;28;20132;-43
2022/07/30 11:41:25;;;;;;;8.07;1.90;;;29.60;64.30;;;;;;5043280;28;20048;-44
2022/07/30 11:44:27;;;;;;;6.97;1.95;;;29.60;64.20;;;;;;5063582;28;20114;-43
2022/07/30 11:46:55;;;;;;;5.05;1.60;;;29.70;63.10;;;;;;5071365;28;20123;-43
2022/07/30 11:49:24;;;;;;;5.65;1.90;;;29.70;63.30;;;;;;5071743;28;20048;-43
2022/07/30 11:51:50;;;;;;;9.30;1.80;;;29.70;63.20;;;;;;5064860;28;20543;-43
2022/07/30 11:54:18;;;;;;;5.40;1.83;;;29.70;62.80;;;;;;5064985;28;20127;-44
2022/07/30 11:56:51;;;;;;;4.45;1.70;;;29.70;62.10;;;;;;5065006;28;20135;-43
2022/07/30 11:59:18;;;;;;;7.00;1.60;;;29.80;61.40;;;;;;5052928;28;20494;-43
2022/07/30 12:01:49;;;;;;;5.40;1.65;;;29.90;61.80;;;;;;5051689;28;20122;-43
2022/07/30 12:04:17;;;;;;;4.85;1.90;;;30.10;60.00;;;;;;5061073;28;20044;-43
2022/07/30 12:06:44;;;;;;;8.00;2.00;;;30.00;59.90;;;;;;5065065;28;20124;-44
2022/07/30 12:09:11;;;;;;;3.72;1.40;;;29.90;58.70;;;;;;5072907;28;20040;-43
2022/07/30 12:11:38;;;;;;;5.78;1.60;;;29.70;60.00;;;;;;5071327;28;20098;-44
2022/07/30 12:14:05;;;;;;;4.53;1.58;;;29.60;59.60;;;;;;5071760;28;20044;-43
2022/07/30 12:16:32;;;;;;;3.70;1.65;;;29.60;61.00;;;;;;5072556;28;20055;-44
2022/07/30 12:19:02;;;;;;;6.57;1.80;;;29.60;60.00;;;;;;5072445;28;20044;-44
2022/07/30 12:21:30;;;;;;;6.00;2.03;;;29.50;59.70;;;;;;5072889;28;20076;-43
2022/07/30 12:23:57;;;;;;;5.18;1.70;;;29.50;59.80;;;;;;5071231;28;20123;-43
2022/07/30 12:26:25;;;;;;;8.93;1.85;;;29.60;59.30;;;;;;5072655;28;20045;-43
2022/07/30 12:28:52;;;;;;;7.15;1.55;;;29.80;59.50;;;;;;5066492;28;20085;-42
2022/07/30 12:31:19;;;;;;;3.55;1.58;;;29.90;59.00;;;;;;5052720;28;20041;-43
2022/07/30 12:33:46;;;;;;;5.53;1.60;;;30.00;56.80;;;;;;5062111;28;20177;-44
2022/07/30 12:36:23;;;;;;;4.07;1.70;;;30.10;57.00;;;;;;5072640;28;20044;-42
2022/07/30 12:38:53;;;;;;;5.82;1.52;;;30.20;56.10;;;;;;5072327;28;20388;-43
2022/07/30 12:41:20;;;;;;;4.68;1.40;;;30.20;56.10;;;;;;5072462;28;20131;-43
2022/07/30 12:43:48;;;;;;;5.18;1.50;;;30.20;55.80;;;;;;5070970;28;20052;-43
2022/07/30 12:46:17;;;;;;;3.50;1.40;;;30.30;54.60;;;;;;5072241;28;20135;-43
2022/07/30 12:48:54;;;;;;;4.07;1.38;;;30.30;56.00;;;;;;5072483;28;20083;-43